createdAt,value
2022-11-23T00:01:17.400Z,4.33
2022-11-23T00:03:47.927Z,4.37
2022-11-23T00:06:17.251Z,4.40
2022-11-23T00:08:46.139Z,4.41
2022-11-23T00:11:14.451Z,4.49
2022-11-23T00:13:43.080Z,4.52
2022-11-23T00:16:14.419Z,4.54
2022-11-23T00:18:42.483Z,4.56
2022-11-23T00:21:14.231Z,4.78
2022-11-23T00:23:43.994Z,4.87
2022-11-23T00:26:12.564Z,4.92
2022-11-23T00:28:42.091Z,5.03
2022-11-23T00:31:11.816Z,5.00
2022-11-23T00:33:40.249Z,5.02
2022-11-23T00:36:10.391Z,5.05
2022-11-23T00:38:40.531Z,5.09
2022-11-23T00:41:10.764Z,5.09
2022-11-23T00:43:39.136Z,5.11
2022-11-23T00:46:09.765Z,5.14
2022-11-23T00:48:38.536Z,5.18
2022-11-23T00:51:09.007Z,5.20
2022-11-23T00:53:37.731Z,5.17
2022-11-23T00:56:08.438Z,5.13
2022-11-23T00:58:38.797Z,5.15
2022-11-23T01:01:10.043Z,5.14
2022-11-23T01:03:39.458Z,5.13
2022-11-23T01:06:09.398Z,5.12
2022-11-23T01:08:37.800Z,5.13
2022-11-23T01:11:10.081Z,5.14
2022-11-23T01:13:38.976Z,5.10
2022-11-23T01:16:10.907Z,5.10
2022-11-23T01:18:39.324Z,5.06
2022-11-23T01:21:07.404Z,5.13
2022-11-23T01:23:35.428Z,5.14
2022-11-23T01:26:10.939Z,5.10
2022-11-23T01:28:40.674Z,5.14
2022-11-23T01:31:10.513Z,5.17
2022-11-23T01:33:39.333Z,5.18
2022-11-23T01:36:11.958Z,5.22
2022-11-23T01:38:40.223Z,5.21
2022-11-23T01:41:13.412Z,5.20
2022-11-23T01:43:41.816Z,5.18
2022-11-23T01:46:10.253Z,5.14
2022-11-23T01:48:41.547Z,5.15
2022-11-23T01:51:13.917Z,5.13
2022-11-23T01:53:43.361Z,5.10
2022-11-23T01:56:17.636Z,5.07
2022-11-23T01:58:51.427Z,5.09
2022-11-23T02:01:19.883Z,5.07
2022-11-23T02:03:53.035Z,5.04
2022-11-23T02:06:23.675Z,5.02
2022-11-23T02:08:52.341Z,4.98
2022-11-23T02:11:22.716Z,4.97
2022-11-23T02:13:54.141Z,4.97
2022-11-23T02:16:22.144Z,4.94
2022-11-23T02:18:52.216Z,4.93
2022-11-23T02:21:22.838Z,4.89
2022-11-23T02:24:02.575Z,4.87
2022-11-23T02:26:34.613Z,4.81
2022-11-23T02:29:09.043Z,4.78
2022-11-23T02:31:45.281Z,4.77
2022-11-23T02:34:13.477Z,4.74
2022-11-23T02:36:42.882Z,4.70
2022-11-23T02:39:13.625Z,4.72
2022-11-23T02:41:45.461Z,4.73
2022-11-23T02:44:26.194Z,4.72
2022-11-23T02:46:55.095Z,4.72
2022-11-23T02:49:23.462Z,4.71
2022-11-23T02:51:52.714Z,4.68
2022-11-23T02:54:20.994Z,4.68
2022-11-23T02:56:50.625Z,4.64
2022-11-23T02:59:20.722Z,4.63
2022-11-23T03:01:54.364Z,4.61
2022-11-23T03:04:27.615Z,4.56
2022-11-23T03:06:56.599Z,4.55
2022-11-23T03:09:26.505Z,4.52
2022-11-23T03:11:56.794Z,4.53
2022-11-23T03:14:26.556Z,4.52
2022-11-23T03:16:59.589Z,4.49
2022-11-23T03:19:31.500Z,4.43
2022-11-23T03:21:59.797Z,4.41
2022-11-23T03:24:31.801Z,4.40
2022-11-23T03:27:03.260Z,4.33
2022-11-23T03:29:31.654Z,4.34
2022-11-23T03:32:02.843Z,4.29
2022-11-23T03:34:31.349Z,4.27
2022-11-23T03:36:59.518Z,4.24
2022-11-23T03:39:28.555Z,4.22
2022-11-23T03:42:07.183Z,4.21
2022-11-23T03:44:36.292Z,4.20
2022-11-23T03:47:06.013Z,4.21
2022-11-23T03:49:36.387Z,4.19
2022-11-23T03:52:05.003Z,4.25
2022-11-23T03:54:33.050Z,4.35
2022-11-23T03:57:01.203Z,4.34
2022-11-23T03:59:30.783Z,4.36
2022-11-23T04:01:59.074Z,4.44
2022-11-23T04:04:29.334Z,4.65
2022-11-23T04:07:08.959Z,4.72
2022-11-23T04:09:42.582Z,4.83
2022-11-23T04:12:36.747Z,4.91
2022-11-23T04:15:07.333Z,4.92
2022-11-23T04:17:36.620Z,5.01
2022-11-23T04:20:05.464Z,5.05
2022-11-23T04:22:33.600Z,5.14
2022-11-23T04:25:02.095Z,5.17
2022-11-23T04:27:30.197Z,5.22
2022-11-23T04:29:58.553Z,5.33
2022-11-23T04:32:28.088Z,5.41
2022-11-23T04:34:56.468Z,5.47
2022-11-23T04:37:24.471Z,5.53
2022-11-23T04:39:53.725Z,5.53
2022-11-23T04:42:28.328Z,5.59
2022-11-23T04:45:02.447Z,5.67
2022-11-23T04:47:33.664Z,5.63
2022-11-23T04:50:09.457Z,5.63
2022-11-23T04:52:37.589Z,5.63
2022-11-23T04:55:10.724Z,5.64
2022-11-23T04:57:47.149Z,5.64
2022-11-23T05:00:16.479Z,5.69
2022-11-23T05:02:47.004Z,5.69
2022-11-23T05:05:35.509Z,5.68
2022-11-23T05:08:04.355Z,5.66
2022-11-23T05:10:47.011Z,5.71
2022-11-23T05:13:15.549Z,5.71
2022-11-23T05:15:44.852Z,5.76
2022-11-23T05:18:21.036Z,5.72
2022-11-23T05:20:50.717Z,5.69
2022-11-23T05:23:19.021Z,5.68
2022-11-23T05:25:47.337Z,5.69
2022-11-23T05:31:09.449Z,5.63
2022-11-23T05:33:39.405Z,5.59
2022-11-23T05:36:13.834Z,5.59
2022-11-23T05:38:43.380Z,5.64
2022-11-23T05:41:16.769Z,5.58
2022-11-23T05:43:46.418Z,5.63
2022-11-23T05:46:22.364Z,5.60
2022-11-23T05:48:52.059Z,5.57
2022-11-23T05:51:20.484Z,5.56
2022-11-23T05:53:50.310Z,5.59
2022-11-23T05:56:25.154Z,5.53
2022-11-23T05:59:06.534Z,5.57
2022-11-23T06:01:36.912Z,5.52
2022-11-23T06:04:07.901Z,5.49
2022-11-23T06:06:41.882Z,5.49
2022-11-23T06:09:10.159Z,5.52
2022-11-23T06:11:40.891Z,5.58
2022-11-23T06:14:15.194Z,5.72
2022-11-23T06:16:46.114Z,5.78
2022-11-23T06:19:32.637Z,5.88
2022-11-23T06:22:01.946Z,5.91
2022-11-23T06:24:34.212Z,5.93
2022-11-23T06:27:40.971Z,6.03
2022-11-23T06:30:20.015Z,6.29
2022-11-23T06:32:49.051Z,6.39
2022-11-23T06:35:19.615Z,6.43
2022-11-23T06:37:49.614Z,6.50
2022-11-23T06:40:20.968Z,6.51
2022-11-23T06:42:49.055Z,6.73
2022-11-23T06:45:22.387Z,6.71
2022-11-23T06:47:55.821Z,6.72
2022-11-23T06:50:25.266Z,6.93
2022-11-23T06:52:57.342Z,7.05
2022-11-23T06:55:35.804Z,7.15
2022-11-23T06:58:05.997Z,7.30
2022-11-23T07:00:34.676Z,7.36
2022-11-23T07:03:04.377Z,7.51
2022-11-23T07:05:41.380Z,7.58
2022-11-23T07:08:09.879Z,7.60
2022-11-23T07:10:38.547Z,7.62
2022-11-23T07:13:06.985Z,7.68
2022-11-23T07:15:36.962Z,7.72
2022-11-23T07:18:05.821Z,7.88
2022-11-23T07:20:36.342Z,7.93
2022-11-23T07:23:09.236Z,7.97
2022-11-23T07:25:38.896Z,8.05
2022-11-23T07:28:08.719Z,8.02
2022-11-23T07:30:37.446Z,8.15
2022-11-23T07:33:08.402Z,8.12
2022-11-23T07:35:40.536Z,8.20
2022-11-23T07:38:10.961Z,8.16
2022-11-23T07:40:40.652Z,8.27
2022-11-23T07:43:16.608Z,8.26
2022-11-23T07:45:49.492Z,8.37
2022-11-23T07:48:18.554Z,8.42
2022-11-23T07:50:49.241Z,8.49
2022-11-23T07:53:18.763Z,8.58
2022-11-23T07:55:47.149Z,8.65
2022-11-23T07:58:15.156Z,8.65
2022-11-23T08:00:43.297Z,8.62
2022-11-23T08:03:30.253Z,8.68
2022-11-23T08:05:58.776Z,8.75
2022-11-23T08:08:28.455Z,8.70
2022-11-23T08:10:56.585Z,8.71
2022-11-23T08:13:27.239Z,8.77
2022-11-23T08:15:56.109Z,8.79
2022-11-23T08:18:27.143Z,8.85
2022-11-23T08:20:55.546Z,8.90
2022-11-23T08:23:25.707Z,8.93
2022-11-23T08:25:55.257Z,8.96
2022-11-23T08:28:23.632Z,8.97
2022-11-23T08:30:51.664Z,9.01
2022-11-23T08:33:19.958Z,9.10
2022-11-23T08:35:48.093Z,9.11
2022-11-23T08:38:16.414Z,9.13
2022-11-23T08:40:44.720Z,9.18
2022-11-23T08:43:14.301Z,9.34
2022-11-23T08:45:42.455Z,9.29
2022-11-23T08:48:10.909Z,9.33
2022-11-23T08:50:39.421Z,9.35
2022-11-23T08:53:07.482Z,9.38
2022-11-23T08:55:35.682Z,9.37
2022-11-23T08:58:04.071Z,9.44
2022-11-23T09:00:35.515Z,9.41
2022-11-23T09:03:06.026Z,9.41
2022-11-23T09:05:34.064Z,9.48
2022-11-23T09:08:02.570Z,9.54
2022-11-23T09:10:30.736Z,9.50
2022-11-23T09:12:59.878Z,9.54
2022-11-23T09:15:27.924Z,9.53
2022-11-23T09:17:57.694Z,9.52
2022-11-23T09:20:25.834Z,9.59
2022-11-23T09:22:54.594Z,9.58
2022-11-23T09:25:24.199Z,9.57
2022-11-23T09:27:58.672Z,9.64
2022-11-23T09:30:26.815Z,9.75
2022-11-23T09:32:58.148Z,9.74
2022-11-23T09:35:26.412Z,9.77
2022-11-23T09:37:58.682Z,9.72
2022-11-23T09:40:32.015Z,9.84
2022-11-23T09:43:18.428Z,9.89
2022-11-23T09:45:50.402Z,9.88
2022-11-23T09:48:33.087Z,9.88
2022-11-23T09:51:05.830Z,9.89
2022-11-23T09:53:41.272Z,9.88
2022-11-23T09:56:18.032Z,9.89
2022-11-23T09:58:46.239Z,9.85
2022-11-23T10:01:16.897Z,9.90
2022-11-23T10:03:49.189Z,9.79
2022-11-23T10:06:21.005Z,9.75
2022-11-23T10:08:59.428Z,9.77
2022-11-23T10:11:40.277Z,9.76
2022-11-23T10:14:24.020Z,9.66
2022-11-23T10:17:00.308Z,9.60
2022-11-23T10:19:40.973Z,9.59
2022-11-23T10:22:16.453Z,9.61
2022-11-23T10:24:50.108Z,9.60
2022-11-23T10:27:20.435Z,9.62
2022-11-23T10:29:49.955Z,9.68
2022-11-23T10:32:27.623Z,9.65
2022-11-23T10:35:04.601Z,9.64
2022-11-23T10:37:34.073Z,9.62
2022-11-23T10:40:02.292Z,9.73
2022-11-23T10:42:34.803Z,9.73
2022-11-23T10:45:20.532Z,9.74
2022-11-23T10:47:52.505Z,9.68
2022-11-23T10:50:54.732Z,9.74
2022-11-23T10:53:28.499Z,9.69
2022-11-23T10:56:17.175Z,9.68
2022-11-23T10:58:47.362Z,9.74
2022-11-23T11:01:17.047Z,9.73
2022-11-23T11:03:45.154Z,9.68
2022-11-23T11:06:24.234Z,9.81
2022-11-23T11:08:54.760Z,9.83
2022-11-23T11:11:25.575Z,9.75
2022-11-23T11:14:05.319Z,9.89
2022-11-23T11:16:35.012Z,9.80
2022-11-23T11:19:23.810Z,9.85
2022-11-23T11:21:53.352Z,9.84
2022-11-23T11:24:27.830Z,9.84
2022-11-23T11:27:02.813Z,9.84
2022-11-23T11:29:39.189Z,9.86
2022-11-23T11:32:13.645Z,9.88
2022-11-23T11:34:48.733Z,9.96
2022-11-23T11:37:24.294Z,10.06
2022-11-23T11:39:56.707Z,10.08
2022-11-23T11:42:34.671Z,10.15
2022-11-23T11:45:07.359Z,10.17
2022-11-23T11:47:40.750Z,10.20
2022-11-23T11:50:24.815Z,10.18
2022-11-23T11:53:04.173Z,10.21
2022-11-23T11:55:46.396Z,10.21
2022-11-23T11:58:17.672Z,10.29
2022-11-23T12:00:48.685Z,10.23
2022-11-23T12:03:21.027Z,10.30
2022-11-23T12:06:26.455Z,10.41
2022-11-23T12:09:02.796Z,10.40
2022-11-23T12:11:30.875Z,10.51
2022-11-23T12:17:52.165Z,10.75
2022-11-23T12:20:50.792Z,10.64
2022-11-23T12:23:37.889Z,10.75
2022-11-23T12:26:22.971Z,10.80
2022-11-23T12:29:08.489Z,10.91
2022-11-23T12:31:45.130Z,10.95
2022-11-23T12:34:35.175Z,11.02
2022-11-23T12:37:23.810Z,11.01
2022-11-23T12:40:24.595Z,11.10
2022-11-23T12:43:01.613Z,11.14
2022-11-23T12:45:49.527Z,11.12
2022-11-23T12:48:37.164Z,11.21
2022-11-23T12:51:14.729Z,11.29
2022-11-23T12:53:50.244Z,11.25
2022-11-23T12:56:30.741Z,11.22
2022-11-23T12:59:01.386Z,11.28
2022-11-23T13:01:34.449Z,11.28
2022-11-23T13:04:31.791Z,11.21
2022-11-23T13:07:30.543Z,11.28
2022-11-23T13:10:35.971Z,11.35
2022-11-23T13:13:25.137Z,11.23
2022-11-23T13:16:22.763Z,11.30
2022-11-23T13:19:13.694Z,11.28
2022-11-23T13:21:43.335Z,11.17
2022-11-23T13:24:32.808Z,11.17
2022-11-23T13:27:47.206Z,11.12
2022-11-23T13:30:45.630Z,11.09
2022-11-23T13:33:38.916Z,11.03
2022-11-23T13:36:15.268Z,11.00
2022-11-23T13:38:46.589Z,11.09
2022-11-23T13:41:57.376Z,11.02
2022-11-23T13:44:31.566Z,11.06
2022-11-23T13:47:06.741Z,11.03
2022-11-23T13:49:42.499Z,11.03
2022-11-23T13:52:32.747Z,11.01
2022-11-23T13:55:09.698Z,10.99
2022-11-23T13:57:39.378Z,11.06
2022-11-23T14:00:44.727Z,10.98
2022-11-23T14:03:51.109Z,10.95
2022-11-23T14:06:28.393Z,10.98
2022-11-23T14:09:04.089Z,10.97
2022-11-23T14:11:41.149Z,10.91
2022-11-23T14:14:20.299Z,10.95
2022-11-23T14:17:16.390Z,10.92
2022-11-23T14:20:00.039Z,10.88
2022-11-23T14:22:41.143Z,10.89
2022-11-23T14:25:41.465Z,10.82
2022-11-23T14:28:22.389Z,10.83
2022-11-23T14:31:06.379Z,10.94
2022-11-23T14:33:42.371Z,10.90
2022-11-23T14:36:23.691Z,10.85
2022-11-23T14:39:11.031Z,10.89
2022-11-23T14:41:42.352Z,10.81
2022-11-23T14:44:14.707Z,10.84
2022-11-23T14:47:00.607Z,10.79
2022-11-23T14:49:29.743Z,10.82
2022-11-23T14:51:58.475Z,10.72
2022-11-23T14:54:32.240Z,10.68
2022-11-23T14:57:03.850Z,10.73
2022-11-23T14:59:35.291Z,10.74
2022-11-23T15:02:06.793Z,10.79
2022-11-23T15:04:42.528Z,10.77
2022-11-23T15:07:17.518Z,10.70
2022-11-23T15:09:52.695Z,10.73
2022-11-23T15:12:29.204Z,10.72
2022-11-23T15:14:58.570Z,10.68
2022-11-23T15:17:27.160Z,10.67
2022-11-23T15:19:57.091Z,10.62
2022-11-23T15:22:26.762Z,10.70
2022-11-23T15:25:06.943Z,10.57
2022-11-23T15:27:35.085Z,10.57
2022-11-23T15:30:03.132Z,10.57
2022-11-23T15:32:34.635Z,10.51
2022-11-23T15:35:07.316Z,10.54
2022-11-23T15:37:42.354Z,10.48
2022-11-23T15:40:15.648Z,10.39
2022-11-23T15:42:44.621Z,10.35
2022-11-23T15:45:35.962Z,10.32
2022-11-23T15:48:06.243Z,10.26
2022-11-23T15:50:34.659Z,10.32
2022-11-23T15:53:03.390Z,10.26
2022-11-23T15:55:32.927Z,10.17
2022-11-23T15:58:02.762Z,10.15
2022-11-23T16:00:31.432Z,10.05
2022-11-23T16:03:35.140Z,10.08
2022-11-23T16:06:21.219Z,10.08
2022-11-23T16:08:49.498Z,9.98
2022-11-23T16:11:28.779Z,9.97
2022-11-23T16:14:13.188Z,9.97
2022-11-23T16:16:45.778Z,9.95
2022-11-23T16:19:25.343Z,9.95
2022-11-23T16:22:01.795Z,9.97
2022-11-23T16:24:32.642Z,9.98
2022-11-23T16:27:03.318Z,9.98
2022-11-23T16:29:36.258Z,9.92
2022-11-23T16:32:07.146Z,9.86
2022-11-23T16:34:35.752Z,9.89
2022-11-23T16:37:04.879Z,9.84
2022-11-23T16:39:33.032Z,9.84
2022-11-23T16:42:02.492Z,9.82
2022-11-23T16:44:31.348Z,9.73
2022-11-23T16:47:19.791Z,9.69
2022-11-23T16:49:47.832Z,9.63
2022-11-23T16:52:16.100Z,9.63
2022-11-23T16:54:44.203Z,9.58
2022-11-23T16:57:21.323Z,9.66
2022-11-23T16:59:49.387Z,9.62
2022-11-23T17:02:17.967Z,9.61
2022-11-23T17:04:46.236Z,9.55
2022-11-23T17:07:14.557Z,9.53
2022-11-23T17:09:42.685Z,9.59
2022-11-23T17:12:19.095Z,9.61
2022-11-23T17:14:49.644Z,9.56
2022-11-23T17:17:21.304Z,9.52
2022-11-23T17:19:50.001Z,9.50
2022-11-23T17:22:19.286Z,9.54
2022-11-23T17:24:49.127Z,9.52
2022-11-23T17:27:22.554Z,9.50
2022-11-23T17:29:56.518Z,9.48
2022-11-23T17:32:35.443Z,9.48
2022-11-23T17:35:03.604Z,9.50
2022-11-23T17:37:31.789Z,9.49
2022-11-23T17:39:59.825Z,9.46
2022-11-23T17:42:31.088Z,9.41
2022-11-23T17:44:59.564Z,9.49
2022-11-23T17:47:30.297Z,9.43
2022-11-23T17:49:59.319Z,9.51
2022-11-23T17:52:27.526Z,9.47
2022-11-23T17:54:55.455Z,9.48
2022-11-23T17:57:24.952Z,9.49
2022-11-23T17:59:54.715Z,9.57
2022-11-23T18:02:22.915Z,9.47
2022-11-23T18:04:51.008Z,9.50
2022-11-23T18:07:19.137Z,9.53
2022-11-23T18:09:47.204Z,9.53
2022-11-23T18:12:15.431Z,9.60
2022-11-23T18:14:43.499Z,9.61
2022-11-23T18:17:13.011Z,9.58
2022-11-23T18:19:41.101Z,9.69
2022-11-23T18:22:09.208Z,9.66
2022-11-23T18:24:37.483Z,9.69
2022-11-23T18:27:05.564Z,9.68
2022-11-23T18:29:34.045Z,9.74
2022-11-23T18:32:02.639Z,9.71
2022-11-23T18:34:32.101Z,9.75
2022-11-23T18:37:00.259Z,9.70
2022-11-23T18:39:28.445Z,9.82
2022-11-23T18:42:00.014Z,9.80
2022-11-23T18:44:30.834Z,9.85
2022-11-23T18:46:59.051Z,9.81
2022-11-23T18:49:27.423Z,9.79
2022-11-23T18:51:56.921Z,9.79
2022-11-23T18:54:25.174Z,9.86
2022-11-23T18:56:53.179Z,9.77
2022-11-23T18:59:56.457Z,9.77
2022-11-23T19:02:11.136Z,9.79
2022-11-23T19:04:39.843Z,9.81
2022-11-23T19:07:09.455Z,9.81
2022-11-23T19:09:37.918Z,9.76
2022-11-23T19:12:06.901Z,9.72
2022-11-23T19:14:34.990Z,9.77
2022-11-23T19:17:03.314Z,9.78
2022-11-23T19:19:32.001Z,9.80
